createdAt,value
2023-02-14T00:01:31.892Z,65.26
2023-02-14T00:04:01.615Z,65.42
2023-02-14T00:06:30.057Z,65.28
2023-02-14T00:08:57.997Z,64.75
2023-02-14T00:11:25.887Z,65.34
2023-02-14T00:14:15.507Z,64.73
2023-02-14T00:16:44.308Z,65.56
2023-02-14T00:19:14.117Z,64.98
2023-02-14T00:21:42.182Z,65.10
2023-02-14T00:24:12.294Z,64.73
2023-02-14T00:26:40.748Z,65.81
2023-02-14T00:29:13.112Z,65.46
2023-02-14T00:31:42.384Z,65.44
2023-02-14T00:34:10.805Z,65.59
2023-02-14T00:36:39.775Z,65.23
2023-02-14T00:39:09.624Z,66.12
2023-02-14T00:41:37.573Z,65.22
2023-02-14T00:44:06.375Z,66.22
2023-02-14T00:46:36.587Z,65.89
2023-02-14T00:49:05.000Z,66.09
2023-02-14T00:51:33.026Z,66.26
2023-02-14T00:54:00.922Z,65.75
2023-02-14T00:56:28.908Z,65.63
2023-02-14T00:58:56.887Z,65.60
2023-02-14T01:01:24.871Z,65.00
2023-02-14T01:03:54.513Z,65.25
2023-02-14T01:06:22.524Z,65.59
2023-02-14T01:08:50.361Z,65.77
2023-02-14T01:11:20.615Z,66.14
2023-02-14T01:13:50.415Z,66.26
2023-02-14T01:16:20.522Z,65.77
2023-02-14T01:18:48.868Z,66.02
2023-02-14T01:21:20.231Z,66.49
2023-02-14T01:23:50.753Z,66.97
2023-02-14T01:26:19.090Z,66.62
2023-02-14T01:28:47.157Z,67.01
2023-02-14T01:31:18.154Z,66.22
2023-02-14T01:33:47.846Z,65.91
2023-02-14T01:36:22.877Z,66.06
2023-02-14T01:38:53.332Z,65.63
2023-02-14T01:41:21.898Z,66.99
2023-02-14T01:43:57.074Z,66.83
2023-02-14T01:46:26.035Z,67.15
2023-02-14T01:48:56.728Z,66.21
2023-02-14T01:51:27.244Z,65.83
2023-02-14T01:53:55.678Z,66.61
2023-02-14T01:56:30.061Z,65.42
2023-02-14T01:59:01.422Z,66.66
2023-02-14T02:01:30.814Z,65.98
2023-02-14T02:04:03.719Z,66.34
2023-02-14T02:06:36.663Z,66.68
2023-02-14T02:09:12.411Z,66.06
2023-02-14T02:11:40.350Z,66.42
2023-02-14T02:14:13.540Z,65.33
2023-02-14T02:17:01.186Z,66.85
2023-02-14T02:19:59.213Z,65.54
2023-02-14T02:22:58.033Z,65.60
2023-02-14T02:25:47.466Z,65.95
2023-02-14T02:28:42.674Z,65.58
2023-02-14T02:31:28.173Z,65.82
2023-02-14T02:34:35.503Z,67.34
2023-02-14T02:37:19.810Z,66.74
2023-02-14T02:40:07.620Z,67.92
2023-02-14T02:42:47.453Z,67.59
2023-02-14T02:45:26.084Z,67.16
2023-02-14T02:48:01.164Z,66.89
2023-02-14T02:50:51.170Z,67.12
2023-02-14T02:53:27.361Z,67.59
2023-02-14T02:56:16.328Z,67.00
2023-02-14T02:58:47.763Z,66.81
2023-02-14T03:01:19.685Z,66.92
2023-02-14T03:04:08.898Z,66.89
2023-02-14T03:06:37.017Z,66.79
2023-02-14T03:09:14.150Z,66.18
2023-02-14T03:11:53.484Z,66.57
2023-02-14T03:14:27.464Z,67.49
2023-02-14T03:17:06.405Z,66.80
2023-02-14T03:20:10.545Z,67.34
2023-02-14T03:22:49.856Z,67.39
2023-02-14T03:25:32.782Z,66.90
2023-02-14T03:28:13.262Z,66.87
2023-02-14T03:30:49.743Z,67.32
2023-02-14T03:33:21.967Z,67.49
2023-02-14T03:36:01.981Z,67.80
2023-02-14T03:38:35.616Z,66.73
2023-02-14T03:41:09.162Z,67.50
2023-02-14T03:43:40.755Z,68.79
2023-02-14T03:46:12.498Z,69.33
2023-02-14T03:48:43.155Z,68.99
2023-02-14T03:51:13.822Z,69.22
2023-02-14T03:53:46.116Z,68.50
2023-02-14T03:56:19.841Z,68.77
2023-02-14T03:58:52.080Z,67.99
2023-02-14T04:01:24.251Z,68.29
2023-02-14T04:03:55.212Z,68.43
2023-02-14T04:06:23.370Z,68.63
2023-02-14T04:08:51.489Z,68.41
2023-02-14T04:11:21.438Z,68.66
2023-02-14T04:13:50.422Z,68.55
2023-02-14T04:16:18.480Z,68.97
2023-02-14T04:19:03.882Z,69.41
2023-02-14T04:21:31.812Z,69.83
2023-02-14T04:23:59.712Z,69.71
2023-02-14T04:26:29.024Z,70.05
2023-02-14T04:28:57.168Z,69.53
2023-02-14T04:31:25.156Z,69.90
2023-02-14T04:33:53.118Z,69.45
2023-02-14T04:36:24.003Z,69.21
2023-02-14T04:38:51.948Z,69.21
2023-02-14T04:41:19.807Z,70.01
2023-02-14T04:43:49.135Z,69.65
2023-02-14T04:46:17.001Z,70.41
2023-02-14T04:48:45.001Z,70.52
2023-02-14T04:51:12.979Z,70.25
2023-02-14T04:53:40.850Z,70.50
2023-02-14T04:56:09.262Z,70.90
2023-02-14T04:58:37.433Z,71.81
2023-02-14T05:01:06.778Z,71.78
2023-02-14T05:03:34.728Z,71.51
2023-02-14T05:06:02.629Z,71.03
2023-02-14T05:08:30.534Z,69.89
2023-02-14T05:10:58.669Z,70.33
2023-02-14T05:13:26.892Z,69.80
2023-02-14T05:15:54.724Z,69.95
2023-02-14T05:18:23.984Z,69.62
2023-02-14T05:20:52.961Z,69.29
2023-02-14T05:23:21.850Z,69.82
2023-02-14T05:25:51.104Z,71.11
2023-02-14T05:28:19.281Z,70.50
2023-02-14T05:30:48.113Z,72.01
2023-02-14T05:33:15.988Z,71.59
2023-02-14T05:35:45.452Z,70.28
2023-02-14T05:38:14.058Z,70.52
2023-02-14T05:40:42.343Z,70.32
2023-02-14T05:43:10.597Z,69.86
2023-02-14T05:45:38.738Z,69.54
2023-02-14T05:48:07.145Z,69.67
2023-02-14T05:50:35.136Z,70.30
2023-02-14T05:53:04.760Z,70.15
2023-02-14T05:55:32.655Z,69.28
2023-02-14T05:58:00.571Z,71.20
2023-02-14T06:00:28.653Z,70.20
2023-02-14T06:02:56.894Z,70.57
2023-02-14T06:05:25.005Z,70.93
2023-02-14T06:07:52.853Z,71.02
2023-02-14T06:10:24.674Z,70.84
2023-02-14T06:12:54.408Z,70.58
2023-02-14T06:15:23.495Z,71.13
2023-02-14T06:17:53.229Z,70.60
2023-02-14T06:20:22.009Z,70.13
2023-02-14T06:22:49.921Z,71.27
2023-02-14T06:25:18.367Z,71.61
2023-02-14T06:27:49.242Z,70.76
2023-02-14T06:30:18.680Z,70.95
2023-02-14T06:32:46.665Z,71.66
2023-02-14T06:35:15.358Z,70.64
2023-02-14T06:37:45.422Z,71.04
2023-02-14T06:40:14.886Z,70.96
2023-02-14T06:42:43.057Z,70.11
2023-02-14T06:45:12.599Z,70.88
2023-02-14T06:47:41.257Z,70.61
2023-02-14T06:50:11.728Z,70.44
2023-02-14T06:52:40.242Z,70.74
2023-02-14T06:55:09.106Z,71.02
2023-02-14T06:57:36.958Z,71.22
2023-02-14T07:00:05.671Z,71.43
2023-02-14T07:02:35.051Z,70.95
2023-02-14T07:05:02.915Z,70.66
2023-02-14T07:07:30.874Z,70.30
2023-02-14T07:10:00.580Z,71.22
2023-02-14T07:12:28.838Z,70.51
2023-02-14T07:14:56.961Z,70.42
2023-02-14T07:17:24.848Z,71.07
2023-02-14T07:19:54.063Z,70.30
2023-02-14T07:22:21.902Z,71.05
2023-02-14T07:24:49.753Z,70.73
2023-02-14T07:27:17.701Z,70.33
2023-02-14T07:29:45.967Z,71.21
2023-02-14T07:32:13.909Z,70.84
2023-02-14T07:34:41.987Z,70.57
2023-02-14T07:37:11.474Z,70.37
2023-02-14T07:39:39.324Z,70.86
2023-02-14T07:42:08.295Z,69.96
2023-02-14T07:44:38.551Z,70.79
2023-02-14T07:47:06.692Z,71.30
2023-02-14T07:49:35.451Z,70.91
2023-02-14T07:52:03.901Z,70.36
2023-02-14T07:54:33.125Z,70.08
2023-02-14T07:57:01.050Z,69.77
2023-02-14T07:59:29.370Z,69.49
2023-02-14T08:01:57.534Z,68.79
2023-02-14T08:04:26.148Z,69.60
2023-02-14T08:06:55.201Z,69.64
2023-02-14T08:09:25.716Z,68.60
2023-02-14T08:12:13.851Z,68.35
2023-02-14T08:14:41.935Z,67.80
2023-02-14T08:17:10.915Z,68.50
2023-02-14T08:19:38.982Z,68.30
2023-02-14T08:22:07.503Z,67.76
2023-02-14T08:24:35.865Z,68.39
2023-02-14T08:27:05.526Z,68.66
2023-02-14T08:29:33.440Z,67.29
2023-02-14T08:32:01.531Z,68.02
2023-02-14T08:34:29.592Z,67.83
2023-02-14T08:36:57.455Z,67.66
2023-02-14T08:39:25.573Z,68.53
2023-02-14T08:41:53.584Z,68.23
2023-02-14T08:44:22.897Z,68.94
2023-02-14T08:46:50.828Z,69.20
2023-02-14T08:49:18.854Z,69.42
2023-02-14T08:51:46.737Z,69.01
2023-02-14T08:54:14.878Z,69.47
2023-02-14T08:56:43.189Z,69.99
2023-02-14T08:59:11.112Z,69.26
2023-02-14T09:01:40.332Z,68.96
2023-02-14T09:04:08.460Z,69.32
2023-02-14T09:06:38.827Z,69.32
2023-02-14T09:09:06.778Z,69.07
2023-02-14T09:11:34.992Z,69.34
2023-02-14T09:14:02.871Z,69.14
2023-02-14T09:16:31.435Z,69.54
2023-02-14T09:19:01.011Z,69.13
2023-02-14T09:21:30.440Z,69.47
2023-02-14T09:23:58.808Z,68.93
2023-02-14T09:26:26.871Z,68.19
2023-02-14T09:28:54.881Z,68.36
2023-02-14T09:31:24.471Z,68.76
2023-02-14T09:34:10.959Z,68.64
2023-02-14T09:36:40.525Z,68.71
2023-02-14T09:39:08.750Z,68.32
2023-02-14T09:42:09.804Z,68.48
2023-02-14T09:44:43.672Z,68.54
2023-02-14T09:47:20.872Z,68.54
2023-02-14T09:49:50.096Z,68.80
2023-02-14T09:52:22.859Z,68.31
2023-02-14T09:54:57.698Z,68.25
2023-02-14T09:57:34.339Z,66.90
2023-02-14T10:00:14.669Z,67.48
2023-02-14T10:02:52.586Z,67.73
2023-02-14T10:05:24.022Z,66.92
2023-02-14T10:08:01.742Z,66.87
2023-02-14T10:10:34.681Z,66.50
2023-02-14T10:13:08.987Z,66.62
2023-02-14T10:15:41.113Z,67.16
2023-02-14T10:18:15.942Z,66.71
2023-02-14T10:20:49.549Z,68.10
2023-02-14T10:23:30.820Z,67.53
2023-02-14T10:26:04.358Z,67.35
2023-02-14T10:28:35.337Z,66.57
2023-02-14T10:31:23.332Z,66.90
2023-02-14T10:33:57.497Z,66.78
2023-02-14T10:36:46.081Z,67.00
2023-02-14T10:39:44.375Z,66.52
2023-02-14T10:42:21.354Z,66.97
2023-02-14T10:44:59.263Z,66.97
2023-02-14T10:47:39.592Z,66.58
2023-02-14T10:50:24.945Z,66.66
2023-02-14T10:53:04.572Z,66.36
2023-02-14T10:55:43.983Z,66.61
2023-02-14T10:58:18.895Z,67.03
2023-02-14T11:00:57.793Z,66.89
2023-02-14T11:03:26.393Z,67.60
2023-02-14T11:05:54.837Z,66.30
2023-02-14T11:08:33.918Z,65.64
2023-02-14T11:11:14.928Z,65.76
2023-02-14T11:13:43.725Z,65.94
2023-02-14T11:16:14.189Z,65.50
2023-02-14T11:18:42.717Z,65.98
2023-02-14T11:21:12.629Z,65.82
2023-02-14T11:23:42.621Z,65.63
2023-02-14T11:26:18.707Z,65.62
2023-02-14T11:28:57.618Z,65.00
2023-02-14T11:31:28.382Z,65.44
2023-02-14T11:33:56.645Z,65.74
2023-02-14T11:36:25.604Z,65.34
2023-02-14T11:39:00.376Z,65.37
2023-02-14T11:41:48.229Z,65.52
2023-02-14T11:44:22.893Z,65.92
2023-02-14T11:46:53.685Z,65.52
2023-02-14T11:49:29.459Z,65.80
2023-02-14T11:51:59.124Z,65.74
2023-02-14T11:54:31.703Z,65.94
2023-02-14T11:57:07.622Z,66.01
2023-02-14T11:59:45.667Z,65.18
2023-02-14T12:02:29.185Z,65.15
2023-02-14T12:05:00.859Z,65.63
2023-02-14T12:07:33.231Z,64.47
2023-02-14T12:10:24.561Z,65.04
2023-02-14T12:12:58.327Z,64.98
2023-02-14T12:15:36.815Z,65.74
2023-02-14T12:18:26.026Z,63.97
2023-02-14T12:21:01.227Z,64.49
2023-02-14T12:23:40.442Z,65.32
2023-02-14T12:26:19.383Z,63.68
2023-02-14T12:28:57.427Z,63.82
2023-02-14T12:31:27.289Z,63.40
2023-02-14T12:33:55.665Z,64.29
2023-02-14T12:36:40.771Z,63.24
2023-02-14T12:39:23.136Z,63.50
2023-02-14T12:42:05.001Z,63.51
2023-02-14T12:44:44.421Z,63.16
2023-02-14T12:47:20.382Z,63.16
2023-02-14T12:50:17.730Z,62.43
2023-02-14T12:53:02.449Z,62.70
2023-02-14T12:55:49.164Z,62.61
2023-02-14T12:58:29.817Z,63.05
2023-02-14T13:01:10.908Z,63.28
2023-02-14T13:03:51.789Z,63.11
2023-02-14T13:06:31.090Z,62.93
2023-02-14T13:09:21.089Z,62.44
2023-02-14T13:12:02.769Z,62.83
2023-02-14T13:14:44.289Z,62.44
2023-02-14T13:17:27.384Z,62.66
2023-02-14T13:20:03.587Z,62.79
2023-02-14T13:22:34.501Z,62.89
2023-02-14T13:25:08.075Z,63.83
2023-02-14T13:27:40.077Z,63.02
2023-02-14T13:30:20.999Z,62.90
2023-02-14T13:32:53.373Z,62.55
2023-02-14T13:35:24.524Z,62.63
2023-02-14T13:37:56.102Z,62.54
2023-02-14T13:40:28.110Z,62.81
2023-02-14T13:42:57.848Z,62.17
2023-02-14T13:45:54.803Z,62.13
2023-02-14T13:48:26.694Z,62.60
2023-02-14T13:50:58.279Z,62.30
2023-02-14T13:53:39.386Z,61.94
2023-02-14T13:56:35.058Z,62.21
2023-02-14T13:59:05.893Z,62.60
2023-02-14T14:01:37.038Z,63.06
2023-02-14T14:04:23.754Z,63.01
2023-02-14T14:07:19.424Z,62.32
2023-02-14T14:09:56.200Z,63.36
2023-02-14T14:12:46.144Z,63.03
2023-02-14T14:15:20.616Z,63.25
2023-02-14T14:18:22.102Z,63.17
2023-02-14T14:20:52.549Z,63.44
2023-02-14T14:23:36.381Z,63.38
2023-02-14T14:26:25.452Z,63.32
2023-02-14T14:28:54.297Z,63.47
2023-02-14T14:31:22.824Z,63.55
2023-02-14T14:33:59.983Z,63.60
2023-02-14T14:36:29.337Z,64.16
2023-02-14T14:38:57.429Z,63.72
2023-02-14T14:41:31.439Z,63.64
2023-02-14T14:44:02.498Z,63.45
2023-02-14T14:46:33.276Z,64.05
2023-02-14T14:49:02.384Z,64.33
2023-02-14T14:51:35.651Z,64.78
2023-02-14T14:54:06.706Z,64.70
2023-02-14T14:56:36.971Z,64.40
2023-02-14T14:59:29.028Z,64.26
2023-02-14T15:01:57.662Z,65.20
2023-02-14T15:04:31.669Z,65.01
2023-02-14T15:07:21.062Z,64.98
2023-02-14T15:09:52.835Z,64.82
2023-02-14T15:12:41.737Z,65.08
2023-02-14T15:15:13.322Z,65.28
2023-02-14T15:17:46.219Z,64.85
2023-02-14T15:20:20.141Z,65.21
2023-02-14T15:22:55.134Z,65.42
2023-02-14T15:25:27.473Z,65.80
2023-02-14T15:27:55.947Z,65.65
2023-02-14T15:30:29.444Z,65.50
2023-02-14T15:32:58.407Z,65.63
2023-02-14T15:35:29.205Z,65.71
2023-02-14T15:38:05.732Z,65.96
2023-02-14T15:40:35.358Z,66.08
2023-02-14T15:43:17.235Z,66.25
2023-02-14T15:45:48.162Z,65.92
2023-02-14T15:48:20.135Z,66.39
2023-02-14T15:50:52.734Z,66.57
2023-02-14T15:53:43.690Z,66.81
2023-02-14T15:56:31.254Z,66.61
2023-02-14T15:59:20.266Z,66.93
2023-02-14T16:01:53.874Z,67.39
2023-02-14T16:04:26.327Z,67.12
2023-02-14T16:07:23.336Z,67.16
2023-02-14T16:10:21.669Z,67.51
2023-02-14T16:12:58.956Z,67.90
2023-02-14T16:15:27.982Z,68.12
2023-02-14T16:17:56.258Z,68.42
2023-02-14T16:21:02.994Z,68.31
2023-02-14T16:23:31.832Z,68.63
2023-02-14T16:26:01.223Z,68.87
2023-02-14T16:28:36.275Z,68.77
2023-02-14T16:31:22.075Z,69.14
2023-02-14T16:34:22.511Z,69.30
2023-02-14T16:37:16.579Z,69.56
2023-02-14T16:39:59.374Z,69.45
2023-02-14T16:42:52.832Z,69.74
2023-02-14T16:45:41.426Z,69.78
2023-02-14T16:48:24.132Z,70.08
2023-02-14T16:51:13.158Z,70.45
2023-02-14T16:53:45.015Z,70.67
2023-02-14T16:56:30.685Z,70.54
2023-02-14T16:59:23.131Z,71.16
2023-02-14T17:02:05.452Z,71.20
2023-02-14T17:04:33.304Z,71.45
2023-02-14T17:07:05.759Z,71.44
2023-02-14T17:09:37.989Z,71.95
2023-02-14T17:12:13.304Z,71.70
2023-02-14T17:14:45.673Z,72.39
2023-02-14T17:17:14.149Z,72.28
2023-02-14T17:19:42.378Z,72.59
2023-02-14T17:22:12.454Z,72.57
2023-02-14T17:24:40.618Z,73.15
2023-02-14T17:27:08.822Z,73.20
2023-02-14T17:29:37.078Z,73.54
2023-02-14T17:32:06.633Z,74.05
2023-02-14T17:34:35.602Z,73.92
2023-02-14T17:37:04.393Z,73.95
2023-02-14T17:39:32.259Z,74.49
2023-02-14T17:42:02.778Z,74.71
2023-02-14T17:44:36.175Z,74.98
2023-02-14T17:47:09.675Z,75.47
2023-02-14T17:49:38.178Z,75.48
2023-02-14T17:52:13.389Z,75.93
2023-02-14T17:54:46.718Z,76.61
2023-02-14T17:57:14.881Z,76.38
2023-02-14T17:59:48.646Z,76.92
2023-02-14T18:02:21.127Z,76.90
2023-02-14T18:04:51.698Z,77.25
2023-02-14T18:07:21.552Z,77.55
2023-02-14T18:10:12.225Z,77.47
2023-02-14T18:12:40.722Z,78.13
2023-02-14T18:15:12.896Z,78.20
2023-02-14T18:17:43.967Z,77.49
2023-02-14T18:20:14.630Z,78.34
2023-02-14T18:22:44.088Z,78.13
2023-02-14T18:25:13.213Z,78.31
2023-02-14T18:27:44.230Z,78.70
2023-02-14T18:30:16.728Z,78.53
2023-02-14T18:32:47.748Z,78.60
2023-02-14T18:35:20.770Z,79.25
2023-02-14T18:37:49.298Z,79.04
2023-02-14T18:40:21.711Z,79.91
2023-02-14T18:42:56.773Z,79.69
2023-02-14T18:45:37.981Z,79.90
2023-02-14T18:48:09.986Z,80.85
2023-02-14T18:50:40.299Z,80.88
2023-02-14T18:53:32.447Z,81.48
2023-02-14T18:56:06.235Z,82.57
2023-02-14T18:58:41.878Z,82.37
2023-02-14T19:02:00.051Z,82.53
2023-02-14T19:04:32.437Z,83.20
2023-02-14T19:07:06.361Z,83.07
2023-02-14T19:09:39.554Z,83.49
2023-02-14T19:12:10.394Z,83.50
2023-02-14T19:14:38.618Z,83.83
2023-02-14T19:17:07.542Z,83.30
2023-02-14T19:19:36.975Z,83.50
2023-02-14T19:22:17.582Z,84.36
2023-02-14T19:24:47.355Z,84.05
2023-02-14T19:27:29.524Z,83.88
2023-02-14T19:30:05.109Z,85.02
2023-02-14T19:32:36.580Z,84.79
2023-02-14T19:35:39.908Z,84.85
2023-02-14T19:38:08.299Z,85.01
2023-02-14T19:40:49.992Z,85.42
2023-02-14T19:43:18.783Z,85.62
2023-02-14T19:45:46.919Z,85.02
2023-02-14T19:48:16.034Z,85.79
2023-02-14T19:51:22.732Z,85.70
2023-02-14T19:53:56.871Z,85.79
2023-02-14T19:56:27.157Z,85.79
2023-02-14T19:58:58.727Z,85.59
2023-02-14T20:01:31.325Z,86.30
2023-02-14T20:04:44.544Z,86.34
2023-02-14T20:07:13.084Z,86.49
2023-02-14T20:09:42.725Z,86.16
2023-02-14T20:12:11.111Z,86.05
2023-02-14T20:21:04.078Z,86.98
2023-02-14T20:23:34.410Z,86.73
2023-02-14T20:26:04.121Z,87.24
2023-02-14T20:28:32.587Z,87.45
2023-02-14T20:31:00.906Z,87.47
2023-02-14T20:33:29.253Z,87.59
2023-02-14T20:35:57.412Z,87.39
2023-02-14T20:38:25.379Z,87.66
2023-02-14T20:40:53.456Z,87.34
2023-02-14T20:43:24.797Z,87.89
2023-02-14T20:45:53.314Z,87.61
2023-02-14T20:48:22.392Z,87.58
2023-02-14T20:50:50.603Z,88.40
2023-02-14T20:53:18.829Z,88.00
2023-02-14T20:55:47.821Z,88.35
2023-02-14T20:58:18.707Z,88.77
2023-02-14T21:00:49.103Z,88.83
2023-02-14T21:03:20.021Z,88.20
2023-02-14T21:05:49.223Z,88.71
2023-02-14T21:08:17.416Z,88.74
2023-02-14T21:10:45.724Z,89.33
2023-02-14T21:13:14.998Z,89.46
2023-02-14T21:15:43.417Z,89.54
2023-02-14T21:18:13.017Z,89.09
2023-02-14T21:20:41.241Z,89.78
2023-02-14T21:23:09.798Z,89.31
2023-02-14T21:25:37.933Z,89.79
2023-02-14T21:28:06.089Z,90.09
2023-02-14T21:30:34.065Z,90.65
2023-02-14T21:33:02.624Z,90.57
2023-02-14T21:35:32.134Z,90.39
2023-02-14T21:38:00.158Z,90.84
2023-02-14T21:40:28.354Z,90.90
2023-02-14T21:42:56.524Z,90.40
2023-02-14T21:45:45.356Z,90.68
2023-02-14T21:48:30.928Z,90.87
2023-02-14T21:51:00.650Z,91.14
2023-02-14T21:53:29.050Z,91.22
2023-02-14T21:56:05.211Z,90.92
2023-02-14T21:58:33.520Z,91.53
2023-02-14T22:01:02.356Z,91.17
2023-02-14T22:03:30.352Z,91.41
2023-02-14T22:06:04.092Z,91.10
2023-02-14T22:08:33.078Z,91.66
2023-02-14T22:11:01.766Z,91.39
2023-02-14T22:13:31.441Z,91.92
2023-02-14T22:16:03.269Z,91.58
2023-02-14T22:18:31.283Z,91.67
2023-02-14T22:21:01.884Z,91.68
2023-02-14T22:23:32.168Z,92.08
2023-02-14T22:26:09.370Z,92.84
2023-02-14T22:28:37.347Z,92.49
2023-02-14T22:31:05.556Z,92.38
2023-02-14T22:33:33.475Z,92.29
2023-02-14T22:36:02.547Z,92.65
2023-02-14T22:38:32.090Z,92.67
2023-02-14T22:41:05.902Z,91.94
2023-02-14T22:43:34.145Z,92.23
2023-02-14T22:46:04.650Z,92.23
2023-02-14T22:48:33.788Z,92.18
2023-02-14T22:51:09.383Z,93.51
2023-02-14T22:53:39.422Z,93.18
2023-02-14T22:56:15.964Z,94.06
2023-02-14T22:58:44.813Z,93.62
2023-02-14T23:01:16.345Z,93.44
2023-02-14T23:03:44.495Z,93.89
2023-02-14T23:06:13.477Z,94.24
2023-02-14T23:08:44.020Z,93.74
2023-02-14T23:11:14.132Z,94.74
2023-02-14T23:14:11.416Z,93.79
2023-02-14T23:16:59.476Z,95.26
2023-02-14T23:19:47.355Z,94.52
2023-02-14T23:22:19.837Z,94.91
2023-02-14T23:24:50.277Z,94.63
2023-02-14T23:27:19.990Z,95.06
2023-02-14T23:29:48.079Z,95.79
2023-02-14T23:32:16.730Z,95.57
2023-02-14T23:34:46.153Z,95.14
2023-02-14T23:37:14.708Z,95.54
2023-02-14T23:39:43.087Z,95.51
2023-02-14T23:42:14.765Z,95.15
2023-02-14T23:44:44.168Z,96.37
2023-02-14T23:47:13.783Z,96.99
2023-02-14T23:49:42.857Z,96.75
2023-02-14T23:52:12.449Z,96.03
2023-02-14T23:54:40.748Z,96.58
2023-02-14T23:57:09.522Z,96.36
2023-02-14T23:59:39.191Z,96.01
